Pagrindinis puslapis
METAR-TAF:

METAR-TAF

Oro uostai :

Sandakan, Malaizija

platuma: 05-54N, ilguma: 118-04E, Aukštis: 12 m

Dabartinis oras

Ataskaita buvo paskelbta 1 valandą ir 11 minutes, ne 01:00 UTC
Ramus vėjas
Temperatūra 26°C
Drėgmė 94%
Slėgis 1010 hPa
Matomumas 10 km arba daugiau
Mažai debesys ne aukštis 1500 ft

METAR: WBKS 290100Z 00000KT 9999 FEW015 26/25 Q1010

Laikas: 10:11 (02:11 UTC)

Prognozė

Ataskaita buvo paskelbta 3 valandos ir 11 minutes, ne 23:00 UTC
Prognozė galioja nuo 29 metu 00 UTC su 30 metu 00 UTC
Vėjas 5 kt iš Vakarų/Pietvakarių
Matomumas 10 km arba daugiau
Mažai debesys ne aukštis 1500 ft
Laikinai
nuo 29 metu 00 UTC su 29 metu 04 UTC
Matomumas: 5000 m
Mažai debesys ne aukštis 1000 ft
Išsisklaidę debesys ne aukštis 4000 ft
lietus

TAF: WBKS 282300Z 2900/3000 24005KT 9999 FEW015 TEMPO 2900/2904 5000 RA FEW010 SCT040

Orai ataskaitas ir orų prognozės (METAR, TAF).

turimą stotys yra geltonos ir raudonos taškus žemėlapyje.

Perkelti pele per norėdami pamatyti stoties vardą.

Tada spustelėkite, norėdami matyti oro stebėjimo ir prognozės.

Norėdami pakeisti žemėlapį: spustelėkite ant žalios mygtukų su juodo kryžiaus žemyn,; žalią mygtuką su brūkšneliu, jei norite nutolinti; arba žalių rodyklių gretimoms žemėlapius.


METAR-TAF: